Detall de PIREP

Printer-friendly versionPDF version

[2009/07/10 20:52:00]
Flight IATA:CT2103
Pilot Number:041
Company ICAO:CAT
Aircraft Type:AT72/F
PAX:48
Departing Airport: LEBZ
Destination Airport: LEVC
Alternate Airport:LEAL
Online: VATSIM
Route:CCS G7 NAPTA G7 GOTOR G7 VISON G7 PALIO G7 CJN A33 PRADO A33 CENTA
Flight Level:FL180
No Slew and time accel
No pause
Crash detect
Detect pilot in Cockpit between each 30 and 45 minutes
20:52 Zero fuel Weight: 39804 Lbs, Fuel Weight: 3309 Lbs
20:52 VATSIM:LEBZ 101800Z 29015KT 260V320 CAVOK 30/07 Q1016
20:52 VATSIM:LEVC 102030Z 05008KT 9999 SCT014 24/21 Q1017 NOSIG
20:52 VOICE CATALONIAN
20:53 Parking Brakes off
21:02 Take-off
21:02 Take off Weight: 43028 Lbs
21:02 Wind: 295º @ 014 Knots Heading: 303º
21:02 POS N38º 53´ 23´´ W006º 49´ 07´´
21:02 Flaps:1 at 130 Knots
21:02 Gear Up: 133 Knots
21:02 Flaps:0 at 173 Knots
21:17 Wind:306º@006 Knots Heading: 074º Ground Speed:
256 Knots Altitude 9983 ft
21:24 TOC
21:24 Fuel Weight: 2452 Lb
21:32 Wind:264º@011 Knots Heading: 073º Ground Speed: 301 Knots Altitude 18087 ft
21:47 Wind:268º@014 Knots Heading: 072º Ground Speed: 301 Knots Altitude 18077 ft
21:58 TOD
21:58 Fuel Weight: 1332 Lb
22:02 Wind:233º@012 Knots Heading: 121º Ground Speed: 287 Knots Altitude 13234 ft
22:15 Flaps:1 at 164 Knots
22:15 Gear Down: 149 Knots
22:16 Flaps:2 at 128 Knots
22:17 Wind:057º@006 Knots Heading: 113º Ground Speed: 127 Knots Altitude 1814 ft
22:19 TouchDown:Rate -143 ft/min Speed: 102 Knots
22:19 VATSIM:LEVC 102130Z 06007KT 020V080 9999 FEW014 24/21 Q1017 NOSIG
22:19 Land
22:19 Wind:063º@006 Knots
22:19 Heading: 116º
22:19 Flight Duration: 01:17
22:19 Landing Weight: 40771 Lbs
22:19 POS N39º 29´ 09´´ W000º 28´ 22´´
22:21 Parking brakes on
22:21 Block to Block Duration: 01:28
22:21 Final Fu
el: 952 Lbls
22:21 Spent Fuel: 2356 Lbls
22:21 Flight Length: 342 NM
22:21 TOD Land Length: 83 NM

Exportar CSV

Powered by Drupal - Modified by Danger4k